Big Bear Station Historical Data
Daily Summary for January 30, 2019 Units:  English    Metric   Both
Next Day »
Daily Weekly Monthly Yearly Custom
  High: Low: Average:
Temperature: 47.8 °F 28.6 °F 38.1 °F
Dew Point: 35.0 °F 26.0 °F 30.8 °F
Humidity: 91% 54% 76%
Wind Speed: 3.7mph 0.0mph 0.1mph
Wind Gust: -999.0mph - -
Wind- - SSW
Pressure: 23.44 in 23.39 in -
Precipitation: 0.00 in    
Historical Graphs
 
 
Tabular Data for January 30, 2019
Time Temperature Dew Point Pressure Wind Wind Speed Wind Gust Humidity Rainfall Rate (Hourly)
00:12 36.3 °F 30.7 °F 23.40 in Calm   -999.0 mph 80% 0.00 in
00:28 36.3 °F 30.1 °F 23.40 in Calm   -999.0 mph 78% 0.00 in
00:43 36.3 °F 30.1 °F 23.40 in Calm   -999.0 mph 78% 0.00 in
00:59 36.7 °F 30.5 °F 23.40 in Calm   -999.0 mph 78% 0.00 in
01:14 36.1 °F 30.2 °F 23.40 in Calm   -999.0 mph 79% 0.00 in
01:29 36.0 °F 31.0 °F 23.40 in Calm   -999.0 mph 82% 0.00 in
01:44 36.0 °F 31.0 °F 23.40 in Calm   -999.0 mph 82% 0.00 in
01:59 36.1 °F 30.8 °F 23.40 in Calm   -999.0 mph 81% 0.00 in
02:15 35.8 °F 30.5 °F 23.40 in Calm   -999.0 mph 81% 0.00 in
02:30 35.6 °F 30.3 °F 23.40 in Calm   -999.0 mph 81% 0.00 in
02:45 35.6 °F 30.6 °F 23.40 in Calm   -999.0 mph 82% 0.00 in
03:00 35.6 °F 30.6 °F 23.40 in Calm   -999.0 mph 82% 0.00 in
03:15 35.6 °F 30.6 °F 23.40 in Calm   -999.0 mph 82% 0.00 in
03:31 35.6 °F 30.6 °F 23.40 in Calm   -999.0 mph 82% 0.00 in
03:46 35.4 °F 30.2 °F 23.40 in Calm   -999.0 mph 81% 0.00 in
04:01 35.4 °F 30.8 °F 23.40 in Calm   -999.0 mph 83% 0.00 in
04:16 35.2 °F 30.6 °F 23.39 in Calm   -999.0 mph 83% 0.00 in
04:32 35.2 °F 30.9 °F 23.39 in Calm   -999.0 mph 84% 0.00 in
04:47 34.9 °F 30.3 °F 23.39 in Calm   -999.0 mph 83% 0.00 in
05:03 34.9 °F 30.6 °F 23.39 in Calm   -999.0 mph 84% 0.00 in
05:18 34.5 °F 30.2 °F 23.40 in Calm   -999.0 mph 84% 0.00 in
05:33 34.5 °F 30.7 °F 23.40 in Calm   -999.0 mph 86% 0.00 in
05:48 34.9 °F 31.1 °F 23.40 in Calm   -999.0 mph 86% 0.00 in
06:03 34.7 °F 30.7 °F 23.40 in Calm   -999.0 mph 85% 0.00 in
06:19 34.7 °F 30.9 °F 23.40 in Calm   -999.0 mph 86% 0.00 in
06:34 34.7 °F 30.7 °F 23.40 in Calm   -999.0 mph 85% 0.00 in
06:49 34.7 °F 30.9 °F 23.41 in Calm   -999.0 mph 86% 0.00 in
07:04 34.7 °F 30.9 °F 23.41 in Calm   -999.0 mph 86% 0.00 in
07:19 35.1 °F 31.3 °F 23.41 in Calm   -999.0 mph 86% 0.00 in
07:35 35.4 °F 31.3 °F 23.42 in Calm   -999.0 mph 85% 0.00 in
07:50 36.3 °F 32.2 °F 23.42 in Calm   -999.0 mph 85% 0.00 in
08:05 37.0 °F 32.3 °F 23.42 in Calm   -999.0 mph 83% 0.00 in
08:20 37.9 °F 32.6 °F 23.42 in Calm   -999.0 mph 81% 0.00 in
08:36 38.8 °F 33.8 °F 23.42 in Calm   -999.0 mph 82% 0.00 in
08:51 39.9 °F 33.9 °F 23.42 in Calm   -999.0 mph 79% 0.00 in
09:06 41.2 °F 33.9 °F 23.43 in Calm   -999.0 mph 75% 0.00 in
09:21 41.7 °F 34.7 °F 23.43 in Calm   -999.0 mph 76% 0.00 in
09:36 41.9 °F 33.5 °F 23.43 in Calm   -999.0 mph 72% 0.00 in
09:52 43.2 °F 34.1 °F 23.44 in Calm   -999.0 mph 70% 0.00 in
10:07 44.6 °F 34.3 °F 23.44 in Calm   -999.0 mph 67% 0.00 in
10:22 45.3 °F 33.0 °F 23.44 in Calm   -999.0 mph 62% 0.00 in
10:37 45.5 °F 32.8 °F 23.44 in Calm   -999.0 mph 61% 0.00 in
10:52 45.7 °F 30.0 °F 23.43 in Calm   -999.0 mph 54% 0.00 in
11:08 46.0 °F 30.7 °F 23.43 in Calm   -999.0 mph 55% 0.00 in
11:23 46.9 °F 31.6 °F 23.43 in Calm   -999.0 mph 55% 0.00 in
11:38 47.1 °F 33.1 °F 23.42 in Calm   -999.0 mph 58% 0.00 in
11:53 46.9 °F 33.7 °F 23.42 in Calm   -999.0 mph 60% 0.00 in
12:08 46.8 °F 34.1 °F 23.42 in Calm   -999.0 mph 61% 0.00 in
12:24 46.8 °F 34.1 °F 23.42 in Calm   -999.0 mph 61% 0.00 in
12:39 46.6 °F 33.5 °F 23.41 in Calm   -999.0 mph 60% 0.00 in
12:54 46.2 °F 33.5 °F 23.41 in Calm   -999.0 mph 61% 0.00 in
13:09 46.9 °F 34.6 °F 23.40 in Calm   -999.0 mph 62% 0.00 in
13:24 47.1 °F 34.7 °F 23.40 in Calm   -999.0 mph 62% 0.00 in
13:40 46.9 °F 35.0 °F 23.40 in Calm   -999.0 mph 63% 0.00 in
13:55 46.9 °F 34.6 °F 23.40 in Calm   -999.0 mph 62% 0.00 in
14:10 46.6 °F 34.3 °F 23.40 in North 3.7 mph -999.0 mph 62% 0.00 in
14:25 47.8 °F 32.4 °F 23.40 in NNW 2.7 mph -999.0 mph 55% 0.00 in
14:40 47.3 °F 32.8 °F 23.39 in Calm   -999.0 mph 57% 0.00 in
14:56 46.6 °F 33.0 °F 23.39 in NNE 2.7 mph -999.0 mph 59% 0.00 in
15:11 46.2 °F 33.1 °F 23.39 in Calm   -999.0 mph 60% 0.00 in
15:26 46.2 °F 33.1 °F 23.39 in NNE 2.7 mph -999.0 mph 60% 0.00 in
15:42 45.7 °F 33.8 °F 23.39 in NW 2.2 mph -999.0 mph 63% 0.00 in
15:57 45.1 °F 33.3 °F 23.39 in Calm   -999.0 mph 63% 0.00 in
16:12 44.8 °F 33.0 °F 23.39 in Calm   -999.0 mph 63% 0.00 in
16:27 44.1 °F 32.7 °F 23.39 in Calm   -999.0 mph 64% 0.00 in
16:42 43.3 °F 32.3 °F 23.39 in Calm   -999.0 mph 65% 0.00 in
16:58 42.1 °F 30.8 °F 23.39 in Calm   -999.0 mph 64% 0.00 in
17:13 40.6 °F 31.2 °F 23.39 in Calm   -999.0 mph 69% 0.00 in
17:28 39.4 °F 30.4 °F 23.39 in Calm   -999.0 mph 70% 0.00 in
17:43 38.5 °F 30.6 °F 23.39 in Calm   -999.0 mph 73% 0.00 in
17:58 37.8 °F 30.3 °F 23.39 in Calm   -999.0 mph 74% 0.00 in
18:14 36.9 °F 30.0 °F 23.39 in Calm   -999.0 mph 76% 0.00 in
18:29 36.0 °F 28.8 °F 23.40 in Calm   -999.0 mph 75% 0.00 in
18:44 35.1 °F 28.6 °F 23.40 in Calm   -999.0 mph 77% 0.00 in
18:59 34.3 °F 27.8 °F 23.40 in Calm   -999.0 mph 77% 0.00 in
19:15 33.6 °F 28.1 °F 23.41 in Calm   -999.0 mph 80% 0.00 in
19:30 33.3 °F 28.7 °F 23.41 in Calm   -999.0 mph 83% 0.00 in
19:45 32.7 °F 27.5 °F 23.41 in Calm   -999.0 mph 81% 0.00 in
20:00 32.0 °F 27.1 °F 23.41 in Calm   -999.0 mph 82% 0.00 in
20:15 31.8 °F 27.5 °F 23.41 in Calm   -999.0 mph 84% 0.00 in
20:31 31.5 °F 27.8 °F 23.42 in Calm   -999.0 mph 86% 0.00 in
20:46 30.9 °F 27.5 °F 23.42 in Calm   -999.0 mph 87% 0.00 in
21:01 30.7 °F 27.3 °F 23.42 in Calm   -999.0 mph 87% 0.00 in
21:16 30.4 °F 27.3 °F 23.42 in Calm   -999.0 mph 88% 0.00 in
21:31 30.0 °F 26.9 °F 23.42 in Calm   -999.0 mph 88% 0.00 in
21:47 29.8 °F 26.7 °F 23.42 in Calm   -999.0 mph 88% 0.00 in
22:02 29.5 °F 26.4 °F 23.42 in Calm   -999.0 mph 88% 0.00 in
22:17 29.3 °F 26.7 °F 23.42 in Calm   -999.0 mph 90% 0.00 in
22:32 29.1 °F 26.5 °F 23.42 in Calm   -999.0 mph 90% 0.00 in
22:47 28.9 °F 26.3 °F 23.42 in Calm   -999.0 mph 90% 0.00 in
23:03 28.8 °F 26.2 °F 23.43 in Calm   -999.0 mph 90% 0.00 in
23:18 28.6 °F 26.0 °F 23.42 in Calm   -999.0 mph 90% 0.00 in
23:33 28.8 °F 26.5 °F 23.42 in Calm   -999.0 mph 91% 0.00 in
23:48 28.8 °F 26.5 °F 23.42 in Calm   -999.0 mph 91% 0.00 in
Big Bear CA Weather